Kezdőlap
METAR-TAF:

METAR-TAF

Repülőterek :

Vlagyikavkaz, Oroszország

földrajzi szélesség: 43-12-18N, földrajzi hosszúság: 044-36-24E, magasság: 510 m

Jelenlegi meteorológiai megfigyelések

A jelentés 2 órával és 41 perccel ezelõtt készült, 17:30 UTC
Keleti szél 4 kt
Hőmérséklet -1°C
Páratartalom 86%
Légköri nyomás 1024 hPa
Látótávolság 10 km, vagy több

METAR: URMO 141730Z 10002MPS 9999 NSC M01/M03 Q1024 R09/010070 NOSIG RMK QFE724/0966

Idő: 23:11 (20:11 UTC)

Előrejelzés

A jelentés 6 órával és 11 perccel ezelõtt készült, 14:00 UTC
Az előrejelzés 14-én 15 óra UTC és 14-én 24 óra UTC között érvényes
Keleti szél 6 kt széllökések: 16 kt
Látótávolság 10 km, vagy több
Szakadozott felhőzet 2000 lábon
14-én 15 óra UTC és 14-én 21 óra UTC között ideiglenes
Látótávolság: 3100 m
Szakadozott felhőzet 1100 lábon
Párásság

TAF: URMO 141400Z 1415/1424 08003G08MPS 9999 BKN020 TEMPO 1415/1421 3100 BR BKN011

Meteorológiai megfigyelések és előrejelzések több, mint 4000 repülőtéren (METAR és TAF jelentéseket).

A térképen piros és sárga pontok jelzik az elérhető meteorológiai állomásokat.

Mozgassa az egeret a pont fölött, hogy megjelenjen az állomás neve.

Azután kattintson az időjárási megfigyelések és előrejelzések megtekintéséhez.

A térkép megváltoztatása: kattintson a fekete keresztel jelölt zöld gombra ráközelítéshez, a vonallal jelölt zöld gombra távolításhoz, vagy a zöld nyilakra a szomszédos térképek eléréséhez.


METAR-TAF: